Robein, Illinois
Current Conditions -  °F | °C
As of 11:54 PM on Wednesday 28 Jan 2015 (Local Time) from KPIA Reporting Station
Clear Clear  
Wind Chill: 30°   Ceiling: Unl
Heat Index: 39°   Visibility: 10mi
Dew Point: 32°   Wind: 18mph
Humidity: 76%   Direction: 180°S
Pressure: 29.74"   Gusts: 23mph
Location:  40.7043°N, 89.529°W
Report Text: KPIA 290554Z 18016G20KT 10SM CLR 04/00 A2974 RMK AO2 SLP075 60000 T00390000 10039 20033 400561033 58037
Loading
Personal Weather Stations






























Interactive Weather Map New forecast layout! Learn more

10-Day Weather Forecast

Advertisements
Track Severe Weather on mobile